createdAt,value
2018-01-28T00:01:38.750Z,63.20
2018-01-28T00:04:05.726Z,62.60
2018-01-28T00:06:31.955Z,64.70
2018-01-28T00:08:58.191Z,62.33
2018-01-28T00:11:24.354Z,66.20
2018-01-28T00:13:50.637Z,70.03
2018-01-28T00:16:23.824Z,86.17
2018-01-28T00:18:50.054Z,82.27
2018-01-28T00:21:16.193Z,66.57
2018-01-28T00:23:42.416Z,77.93
2018-01-28T00:26:08.644Z,77.90
2018-01-28T00:28:34.833Z,69.00
2018-01-28T00:31:01.050Z,70.43
2018-01-28T00:33:27.250Z,67.83
2018-01-28T00:35:53.438Z,61.33
2018-01-28T00:38:19.638Z,59.40
2018-01-28T00:40:45.858Z,60.10
2018-01-28T00:43:12.056Z,55.13
2018-01-28T00:45:38.304Z,53.70
2018-01-28T00:48:04.496Z,51.57
2018-01-28T00:50:30.726Z,48.83
2018-01-28T00:52:56.936Z,54.80
2018-01-28T00:55:23.095Z,49.23
2018-01-28T00:57:49.279Z,52.03
2018-01-28T01:00:16.302Z,49.07
2018-01-28T01:02:42.484Z,49.60
2018-01-28T01:05:08.711Z,49.03
2018-01-28T01:07:34.970Z,49.30
2018-01-28T01:10:01.195Z,48.87
2018-01-28T01:12:27.441Z,49.93
2018-01-28T01:14:54.329Z,52.63
2018-01-28T01:17:20.522Z,55.57
2018-01-28T01:19:46.730Z,46.97
2018-01-28T01:22:12.975Z,55.93
2018-01-28T01:24:39.203Z,49.80
2018-01-28T01:27:05.416Z,51.10
2018-01-28T01:29:31.586Z,55.43
2018-01-28T01:31:57.794Z,52.93
2018-01-28T01:34:24.775Z,52.10
2018-01-28T01:36:51.018Z,49.97
2018-01-28T01:39:17.212Z,56.80
2018-01-28T01:41:44.152Z,52.20
2018-01-28T01:44:11.069Z,47.90
2018-01-28T01:46:37.967Z,47.37
2018-01-28T01:49:04.136Z,49.50
2018-01-28T01:51:30.377Z,49.87
2018-01-28T01:53:57.267Z,51.70
2018-01-28T01:56:23.506Z,43.40
2018-01-28T01:58:49.700Z,51.57
2018-01-28T02:01:16.675Z,49.20
2018-01-28T02:03:42.892Z,47.97
2018-01-28T02:06:09.045Z,55.17
2018-01-28T02:08:35.229Z,51.13
2018-01-28T02:11:01.446Z,57.03
2018-01-28T02:13:28.344Z,52.03
2018-01-28T02:15:54.512Z,47.70
2018-01-28T02:18:20.697Z,47.00
2018-01-28T02:20:46.891Z,45.87
2018-01-28T02:23:13.131Z,49.23
2018-01-28T02:25:39.363Z,49.57
2018-01-28T02:28:05.586Z,53.03
2018-01-28T02:30:31.776Z,46.73
2018-01-28T02:32:58.740Z,48.07
2018-01-28T02:35:24.953Z,50.23
2018-01-28T02:37:51.977Z,49.27
2018-01-28T02:40:18.237Z,50.13
2018-01-28T02:42:45.151Z,50.40
2018-01-28T02:45:11.417Z,47.50
2018-01-28T02:47:37.661Z,51.87
2018-01-28T02:50:03.915Z,45.97
2018-01-28T02:52:30.114Z,49.53
2018-01-28T02:54:56.385Z,46.63
2018-01-28T02:57:22.595Z,47.30
2018-01-28T02:59:48.776Z,45.73
2018-01-28T03:02:15.659Z,47.17
2018-01-28T03:04:41.805Z,52.50
2018-01-28T03:07:08.022Z,46.70
2018-01-28T03:09:34.239Z,46.20
2018-01-28T03:12:00.430Z,47.10
2018-01-28T03:14:27.401Z,44.97
2018-01-28T03:16:53.586Z,48.17
2018-01-28T03:19:19.787Z,47.23
2018-01-28T03:21:45.965Z,49.33
2018-01-28T03:24:12.918Z,53.10
2018-01-28T03:26:39.166Z,42.10
2018-01-28T03:29:05.372Z,46.43
2018-01-28T03:31:31.562Z,43.00
2018-01-28T03:33:57.759Z,42.70
2018-01-28T03:36:23.994Z,55.27
2018-01-28T03:38:50.214Z,45.43
2018-01-28T03:41:16.450Z,52.27
2018-01-28T03:43:42.657Z,47.27
2018-01-28T03:46:08.861Z,49.03
2018-01-28T03:48:35.826Z,49.03
2018-01-28T03:51:01.966Z,47.00
2018-01-28T03:53:28.170Z,51.60
2018-01-28T03:55:54.403Z,50.07
2018-01-28T03:58:20.609Z,46.83
2018-01-28T04:00:47.553Z,43.37
2018-01-28T04:03:14.486Z,49.73
2018-01-28T04:05:40.708Z,45.03
2018-01-28T04:08:06.942Z,43.53
2018-01-28T04:10:33.853Z,46.70
2018-01-28T04:13:00.022Z,47.27
2018-01-28T04:15:26.916Z,46.20
2018-01-28T04:17:53.159Z,40.37
2018-01-28T04:20:19.395Z,41.70
2018-01-28T04:22:45.557Z,41.77
2018-01-28T04:25:12.580Z,40.87
2018-01-28T04:27:39.523Z,40.10
2018-01-28T04:30:05.794Z,48.03
2018-01-28T04:32:32.043Z,46.30
2018-01-28T04:34:58.259Z,42.90
2018-01-28T04:37:24.501Z,40.23
2018-01-28T04:39:50.750Z,41.40
2018-01-28T04:42:16.937Z,42.60
2018-01-28T04:44:43.811Z,37.93
2018-01-28T04:47:10.008Z,39.70
2018-01-28T04:49:36.154Z,38.07
2018-01-28T04:52:02.346Z,35.40
2018-01-28T04:54:29.299Z,36.90
2018-01-28T04:56:56.222Z,35.23
2018-01-28T04:59:22.412Z,36.50
2018-01-28T05:01:48.636Z,34.50
2018-01-28T05:04:14.867Z,36.80
2018-01-28T05:06:41.127Z,38.20
2018-01-28T05:09:07.433Z,36.47
2018-01-28T05:11:33.691Z,33.53
2018-01-28T05:14:00.663Z,32.13
2018-01-28T05:16:27.674Z,33.37
2018-01-28T05:18:54.670Z,29.63
2018-01-28T05:21:20.900Z,31.17
2018-01-28T05:23:47.119Z,33.37
2018-01-28T05:26:13.382Z,32.13
2018-01-28T05:28:39.630Z,30.40
2018-01-28T05:31:06.653Z,31.67
2018-01-28T05:33:32.832Z,30.03
2018-01-28T05:35:59.780Z,28.07
2018-01-28T05:38:26.683Z,29.43
2018-01-28T05:40:52.925Z,28.47
2018-01-28T05:43:19.139Z,26.37
2018-01-28T05:45:45.370Z,28.20
2018-01-28T05:48:11.540Z,32.53
2018-01-28T05:50:38.505Z,26.50
2018-01-28T05:53:04.782Z,25.03
2018-01-28T05:55:31.693Z,23.17
2018-01-28T05:57:57.903Z,27.80
2018-01-28T06:00:24.165Z,24.87
2018-01-28T06:02:50.375Z,23.60
2018-01-28T06:05:16.586Z,26.17
2018-01-28T06:07:42.792Z,20.60
2018-01-28T06:10:09.771Z,23.80
2018-01-28T06:12:36.035Z,26.10
2018-01-28T06:15:02.194Z,25.40
2018-01-28T06:17:29.071Z,18.60
2018-01-28T06:19:55.313Z,22.97
2018-01-28T06:22:21.485Z,21.00
2018-01-28T06:24:47.657Z,22.53
2018-01-28T06:27:14.516Z,20.30
2018-01-28T06:29:41.679Z,20.40
2018-01-28T06:32:07.919Z,18.70
2018-01-28T06:34:34.878Z,21.07
2018-01-28T06:37:01.076Z,19.53
2018-01-28T06:39:27.241Z,18.30
2018-01-28T06:41:54.161Z,27.10
2018-01-28T06:44:20.471Z,15.67
2018-01-28T06:46:46.704Z,16.13
2018-01-28T06:49:12.898Z,17.03
2018-01-28T06:51:39.307Z,18.40
2018-01-28T06:54:06.221Z,18.20
2018-01-28T06:56:32.358Z,14.27
2018-01-28T06:58:59.319Z,14.27
2018-01-28T07:01:26.244Z,15.17
2018-01-28T07:03:52.467Z,14.80
2018-01-28T07:06:19.372Z,15.40
2018-01-28T07:08:45.595Z,16.20
2018-01-28T07:11:11.891Z,18.93
2018-01-28T07:13:38.866Z,10.83
2018-01-28T07:16:05.951Z,8.83
2018-01-28T07:18:32.298Z,13.80
2018-01-28T07:20:59.417Z,8.10
2018-01-28T07:23:25.660Z,8.20
2018-01-28T07:25:51.921Z,7.47
2018-01-28T07:28:18.211Z,7.80
2018-01-28T07:30:44.367Z,8.70
2018-01-28T07:33:10.696Z,12.50
2018-01-28T07:35:37.091Z,11.87
2018-01-28T07:38:03.305Z,10.30
2018-01-28T07:40:29.668Z,9.40
2018-01-28T07:42:56.023Z,7.70
2018-01-28T07:45:22.486Z,9.20
2018-01-28T07:47:48.892Z,7.83
2018-01-28T07:50:15.892Z,7.23
2018-01-28T07:52:42.250Z,8.00
2018-01-28T07:55:08.482Z,7.60
2018-01-28T07:57:34.965Z,10.27
2018-01-28T08:00:01.275Z,8.90
2018-01-28T08:02:28.329Z,10.03
2018-01-28T08:04:55.451Z,8.63
2018-01-28T08:07:22.615Z,12.77
2018-01-28T08:09:55.644Z,9.77
2018-01-28T08:12:27.903Z,9.03
2018-01-28T08:14:54.148Z,7.60
2018-01-28T08:17:20.346Z,9.90
2018-01-28T08:19:47.315Z,9.10
2018-01-28T08:22:13.576Z,16.80
2018-01-28T08:24:39.832Z,8.90
2018-01-28T08:30:06.556Z,12.20
2018-01-28T08:32:32.780Z,11.63
2018-01-28T08:34:59.182Z,9.20
2018-01-28T08:37:25.578Z,9.00
2018-01-28T08:39:51.773Z,8.90
2018-01-28T08:42:17.995Z,9.43
2018-01-28T08:44:44.247Z,7.40
2018-01-28T08:47:10.476Z,8.17
2018-01-28T08:49:36.722Z,9.43
2018-01-28T08:52:02.868Z,7.70
2018-01-28T08:54:29.843Z,9.80
2018-01-28T08:56:56.053Z,9.40
2018-01-28T08:59:22.245Z,8.47
2018-01-28T09:01:48.490Z,6.97
2018-01-28T09:04:15.446Z,10.27
2018-01-28T09:06:41.627Z,8.30
2018-01-28T09:09:07.828Z,8.77
2018-01-28T09:11:34.022Z,8.33
2018-01-28T09:14:01.060Z,8.93
2018-01-28T09:16:27.247Z,7.90
2018-01-28T09:18:53.440Z,7.23
2018-01-28T09:21:19.650Z,11.67
2018-01-28T09:23:46.625Z,8.63
2018-01-28T09:26:12.836Z,9.60
2018-01-28T09:28:39.750Z,7.07
2018-01-28T09:31:06.665Z,8.17
2018-01-28T09:33:32.868Z,6.00
2018-01-28T09:35:59.053Z,10.87
2018-01-28T09:38:25.273Z,7.47
2018-01-28T09:40:52.206Z,7.60
2018-01-28T09:43:18.435Z,7.37
2018-01-28T09:45:44.707Z,8.43
2018-01-28T09:48:11.669Z,9.37
2018-01-28T09:50:37.871Z,8.27
2018-01-28T09:53:04.803Z,7.50
2018-01-28T09:55:30.998Z,8.70
2018-01-28T09:57:57.214Z,10.33
2018-01-28T10:00:23.393Z,8.03
2018-01-28T10:02:50.262Z,6.87
2018-01-28T10:05:16.475Z,9.27
2018-01-28T10:07:43.374Z,8.80
2018-01-28T10:10:09.543Z,7.37
2018-01-28T10:12:36.483Z,6.13
2018-01-28T10:15:03.486Z,8.70
2018-01-28T10:17:29.690Z,6.57
2018-01-28T10:19:55.884Z,8.57
2018-01-28T10:22:22.146Z,8.90
2018-01-28T10:24:48.337Z,16.40
2018-01-28T10:27:14.534Z,6.23
2018-01-28T10:29:40.693Z,12.37
2018-01-28T10:32:06.878Z,7.03
2018-01-28T10:34:33.040Z,8.50
2018-01-28T10:36:59.237Z,7.10
2018-01-28T10:39:25.488Z,8.50
2018-01-28T10:41:52.381Z,5.80
2018-01-28T10:44:18.615Z,8.83
2018-01-28T10:46:44.837Z,7.37
2018-01-28T10:49:11.060Z,7.73
2018-01-28T10:51:37.244Z,10.67
2018-01-28T10:54:04.213Z,6.27
2018-01-28T10:56:31.134Z,8.80
2018-01-28T10:58:58.077Z,5.83
2018-01-28T11:01:24.978Z,10.10
2018-01-28T11:03:51.214Z,6.70
2018-01-28T11:06:17.447Z,7.73
2018-01-28T11:08:43.635Z,7.67
2018-01-28T11:11:10.594Z,6.87
2018-01-28T11:13:36.798Z,5.93
2018-01-28T11:16:03.738Z,7.20
2018-01-28T11:18:29.935Z,4.90
2018-01-28T11:20:56.108Z,8.90
2018-01-28T11:23:23.002Z,5.50
2018-01-28T11:25:49.165Z,4.60
2018-01-28T11:28:15.374Z,5.83
2018-01-28T11:30:41.569Z,7.03
2018-01-28T11:33:07.786Z,4.80
2018-01-28T11:35:33.976Z,8.60
2018-01-28T11:38:00.153Z,4.73
2018-01-28T11:40:26.420Z,6.90
2018-01-28T11:42:53.317Z,4.50
2018-01-28T11:45:19.557Z,4.43
2018-01-28T11:47:45.747Z,4.60
2018-01-28T11:50:12.676Z,4.27
2018-01-28T11:52:39.599Z,3.50
2018-01-28T11:55:05.843Z,3.30
2018-01-28T11:57:32.048Z,4.20
2018-01-28T11:59:58.234Z,3.40
2018-01-28T12:02:24.456Z,4.37
2018-01-28T12:04:51.373Z,4.70
2018-01-28T12:07:18.364Z,3.03
2018-01-28T12:09:44.657Z,3.93
2018-01-28T12:12:11.639Z,4.10
2018-01-28T12:14:37.846Z,5.77
2018-01-28T12:17:04.054Z,3.53
2018-01-28T12:19:30.270Z,2.97
2018-01-28T12:21:56.474Z,4.00
2018-01-28T12:24:22.652Z,3.00
2018-01-28T12:26:49.589Z,2.70
2018-01-28T12:29:16.518Z,3.30
2018-01-28T12:31:42.752Z,3.20
2018-01-28T12:34:08.953Z,3.20
2018-01-28T12:36:35.138Z,3.63
2018-01-28T12:39:01.344Z,3.10
2018-01-28T12:41:28.340Z,5.50
2018-01-28T12:43:54.488Z,4.73
2018-01-28T12:46:25.061Z,4.20
2018-01-28T12:48:51.346Z,3.80
2018-01-28T12:51:32.782Z,4.50
2018-01-28T12:54:07.643Z,5.87
2018-01-28T12:56:39.881Z,8.80
2018-01-28T13:01:54.140Z,4.20
2018-01-28T13:04:34.718Z,6.40
2018-01-28T13:07:04.637Z,5.93
2018-01-28T13:09:31.332Z,4.80
2018-01-28T13:11:57.544Z,5.10
2018-01-28T13:14:23.750Z,4.53
2018-01-28T13:16:49.942Z,6.53
2018-01-28T13:19:16.844Z,4.40
2018-01-28T13:21:43.057Z,4.60
2018-01-28T13:24:18.842Z,5.03
2018-01-28T13:26:45.011Z,4.37
2018-01-28T13:29:11.186Z,4.67
2018-01-28T13:31:37.415Z,4.50
2018-01-28T13:34:03.616Z,4.20
2018-01-28T13:36:29.812Z,4.30
2018-01-28T13:38:56.066Z,5.03
2018-01-28T13:41:22.244Z,4.20
2018-01-28T13:43:49.270Z,4.20
2018-01-28T13:46:15.490Z,4.20
2018-01-28T13:48:41.741Z,4.57
2018-01-28T13:51:09.386Z,5.43
2018-01-28T13:53:35.634Z,5.87
2018-01-28T13:56:01.821Z,4.63
2018-01-28T13:58:29.704Z,6.37
2018-01-28T14:00:55.913Z,4.80
2018-01-28T14:03:22.088Z,4.57
2018-01-28T14:05:48.247Z,5.47
2018-01-28T14:08:14.486Z,4.57
2018-01-28T14:10:40.734Z,4.77
2018-01-28T14:13:06.939Z,4.77
2018-01-28T14:15:33.135Z,4.53
2018-01-28T14:18:00.034Z,4.47
2018-01-28T14:20:26.255Z,9.43
2018-01-28T14:22:52.503Z,4.53
2018-01-28T14:25:18.756Z,6.63
2018-01-28T14:27:44.969Z,5.27
2018-01-28T14:30:11.120Z,7.47
2018-01-28T14:32:38.092Z,4.63
2018-01-28T14:35:04.308Z,5.20
2018-01-28T14:37:30.507Z,5.90
2018-01-28T14:39:56.782Z,5.23
2018-01-28T14:42:22.979Z,5.50
2018-01-28T14:44:49.957Z,8.40
2018-01-28T14:47:16.180Z,6.00
2018-01-28T14:49:42.386Z,5.63
2018-01-28T14:52:09.328Z,5.80
2018-01-28T14:54:36.321Z,4.80
2018-01-28T14:57:02.492Z,6.50
2018-01-28T14:59:29.451Z,6.20
2018-01-28T15:01:56.340Z,6.67
2018-01-28T15:04:22.525Z,11.50
2018-01-28T15:06:49.471Z,7.57
2018-01-28T15:09:16.383Z,4.83
2018-01-28T15:11:42.658Z,5.70
2018-01-28T15:14:08.870Z,7.77
2018-01-28T15:16:35.837Z,5.97
2018-01-28T15:19:02.097Z,6.30
2018-01-28T15:21:28.410Z,5.60
2018-01-28T15:23:54.598Z,8.33
2018-01-28T15:26:21.582Z,5.60
2018-01-28T15:28:47.773Z,6.03
2018-01-28T15:31:14.716Z,5.00
2018-01-28T15:33:41.614Z,6.53
2018-01-28T15:36:07.840Z,5.00
2018-01-28T15:38:34.086Z,5.10
2018-01-28T15:41:01.059Z,9.97
2018-01-28T15:43:28.014Z,4.83
2018-01-28T15:47:11.049Z,14.53
2018-01-28T15:49:38.023Z,4.87
2018-01-28T15:52:04.249Z,7.33
2018-01-28T15:54:30.520Z,6.30
2018-01-28T15:56:56.763Z,6.33
2018-01-28T15:59:24.083Z,4.93
2018-01-28T16:01:50.323Z,4.50
2018-01-28T16:04:16.507Z,7.63
2018-01-28T16:06:42.736Z,5.37
2018-01-28T16:09:08.963Z,5.33
2018-01-28T16:11:35.128Z,9.57
2018-01-28T16:14:01.309Z,4.73
2018-01-28T16:16:27.545Z,5.13
2018-01-28T16:18:53.755Z,4.93
2018-01-28T16:21:20.717Z,6.30
2018-01-28T16:23:46.891Z,4.57
2018-01-28T16:26:13.155Z,5.23
2018-01-28T16:28:40.126Z,5.30
2018-01-28T16:31:06.317Z,34.63
2018-01-28T16:33:33.260Z,5.13
2018-01-28T16:35:59.502Z,5.20
2018-01-28T16:38:25.697Z,6.10
2018-01-28T16:40:51.899Z,5.07
2018-01-28T16:43:18.145Z,6.57
2018-01-28T16:45:44.331Z,8.30
2018-01-28T16:48:10.582Z,4.17
2018-01-28T16:50:36.837Z,5.07
2018-01-28T16:53:03.083Z,4.80
2018-01-28T16:55:30.033Z,4.30
2018-01-28T16:57:56.991Z,5.40
2018-01-28T17:00:23.934Z,4.90
2018-01-28T17:02:50.874Z,6.80
2018-01-28T17:05:17.888Z,8.93
2018-01-28T17:07:44.214Z,10.20
2018-01-28T17:10:10.446Z,4.23
2018-01-28T17:12:36.647Z,5.37
2018-01-28T17:15:02.908Z,3.73
2018-01-28T17:17:30.251Z,6.17
2018-01-28T17:19:56.449Z,4.13
2018-01-28T17:22:23.558Z,5.87
2018-01-28T17:24:49.768Z,4.23
2018-01-28T17:27:15.962Z,4.87
2018-01-28T17:29:42.262Z,8.53
2018-01-28T17:32:09.330Z,9.63
2018-01-28T17:34:35.626Z,4.97
2018-01-28T17:37:02.608Z,4.23
2018-01-28T17:39:28.783Z,4.30
2018-01-28T17:41:55.744Z,4.40
2018-01-28T17:44:21.937Z,4.03
2018-01-28T17:46:48.098Z,3.50
2018-01-28T17:49:15.045Z,4.60
2018-01-28T17:51:41.997Z,3.97
2018-01-28T17:54:08.941Z,4.80
2018-01-28T17:56:35.836Z,3.13
2018-01-28T17:59:01.978Z,3.60
2018-01-28T18:01:28.263Z,3.60
2018-01-28T18:03:54.486Z,3.67
2018-01-28T18:06:20.703Z,4.30
2018-01-28T18:08:47.668Z,3.60
2018-01-28T18:11:13.805Z,4.63
2018-01-28T18:13:40.161Z,4.67
2018-01-28T18:16:06.309Z,4.90
2018-01-28T18:18:32.538Z,4.00
2018-01-28T18:20:59.491Z,4.90
2018-01-28T18:23:25.826Z,2.80
2018-01-28T18:25:52.753Z,3.07
2018-01-28T18:28:19.740Z,3.50
2018-01-28T18:30:45.931Z,4.77
2018-01-28T18:33:12.106Z,3.70
2018-01-28T18:35:38.354Z,3.63
2018-01-28T18:38:04.558Z,4.30
2018-01-28T18:40:30.823Z,3.97
2018-01-28T18:42:57.075Z,4.03
2018-01-28T18:45:24.131Z,27.47
2018-01-28T18:47:51.083Z,8.97
2018-01-28T18:50:17.988Z,5.23
2018-01-28T18:52:44.208Z,4.37
2018-01-28T18:55:10.420Z,10.40
2018-01-28T18:57:36.688Z,5.57
2018-01-28T19:00:02.976Z,4.67
2018-01-28T19:02:29.148Z,3.27
2018-01-28T19:04:55.342Z,2.90
2018-01-28T19:07:21.580Z,3.87
2018-01-28T19:09:47.881Z,3.33
2018-01-28T19:12:14.145Z,3.60
2018-01-28T19:14:40.344Z,4.13
2018-01-28T19:17:07.421Z,4.23
2018-01-28T19:19:33.624Z,3.53
2018-01-28T19:21:59.850Z,4.13
2018-01-28T19:24:26.784Z,4.27
2018-01-28T19:26:52.944Z,4.40
2018-01-28T19:29:19.134Z,3.93
2018-01-28T19:31:45.374Z,4.90
2018-01-28T19:34:11.517Z,4.03
2018-01-28T19:36:37.719Z,3.40
2018-01-28T19:39:04.938Z,3.90
2018-01-28T19:41:31.927Z,4.17
2018-01-28T19:43:58.111Z,4.07
2018-01-28T19:46:24.349Z,4.00
2018-01-28T19:48:51.350Z,4.30
2018-01-28T19:51:17.561Z,3.73
2018-01-28T19:53:43.738Z,3.27
2018-01-28T19:56:09.981Z,4.30
2018-01-28T19:58:36.930Z,3.90
2018-01-28T20:01:03.852Z,5.00
2018-01-28T20:03:30.819Z,4.30
2018-01-28T20:05:56.998Z,3.30
2018-01-28T20:08:23.181Z,4.20
2018-01-28T20:10:50.094Z,3.63
2018-01-28T20:13:16.343Z,3.60
2018-01-28T20:15:43.283Z,3.50
2018-01-28T20:18:09.562Z,3.13
2018-01-28T20:20:35.809Z,3.43
2018-01-28T20:23:02.082Z,3.40
2018-01-28T20:25:29.007Z,3.30
2018-01-28T20:27:56.263Z,3.30
2018-01-28T20:30:23.287Z,3.33
2018-01-28T20:32:49.534Z,2.83
2018-01-28T20:35:16.523Z,3.90
2018-01-28T20:37:42.746Z,3.10
2018-01-28T20:40:09.023Z,2.83
2018-01-28T20:42:35.257Z,3.10
2018-01-28T20:45:01.444Z,3.03
2018-01-28T20:47:27.666Z,3.60
2018-01-28T20:49:53.878Z,3.43
2018-01-28T20:52:20.186Z,3.00
2018-01-28T20:54:47.086Z,2.87
2018-01-28T20:57:13.330Z,2.67
2018-01-28T20:59:39.607Z,3.00
2018-01-28T21:02:05.891Z,2.97
2018-01-28T21:04:32.070Z,2.87
2018-01-28T21:06:58.286Z,3.27
2018-01-28T21:09:25.283Z,3.20
2018-01-28T21:11:51.513Z,3.10
2018-01-28T21:14:17.848Z,3.27
2018-01-28T21:16:44.036Z,3.17
2018-01-28T21:19:10.243Z,2.53
2018-01-28T21:21:37.227Z,3.10
2018-01-28T21:24:04.294Z,3.00
2018-01-28T21:26:31.108Z,3.17
2018-01-28T21:28:57.456Z,3.27
2018-01-28T21:31:24.728Z,3.33
2018-01-28T21:33:51.201Z,3.83
2018-01-28T21:36:18.500Z,3.70
2018-01-28T21:38:44.992Z,3.23
2018-01-28T21:41:12.926Z,3.13
2018-01-28T21:43:39.434Z,4.43
2018-01-28T21:46:06.655Z,4.27
2018-01-28T21:48:33.601Z,3.27
2018-01-28T21:51:00.628Z,3.30
2018-01-28T21:53:27.571Z,3.63
2018-01-28T21:55:53.759Z,3.80
2018-01-28T21:58:19.965Z,3.67
2018-01-28T22:00:46.191Z,4.17
2018-01-28T22:03:12.354Z,4.13
2018-01-28T22:05:38.845Z,4.37
2018-01-28T22:08:05.114Z,3.93
2018-01-28T22:10:31.333Z,3.70
2018-01-28T22:12:57.557Z,5.10
2018-01-28T22:15:23.819Z,4.60
2018-01-28T22:17:49.999Z,4.73
2018-01-28T22:20:16.222Z,4.53
2018-01-28T22:22:42.452Z,5.03
2018-01-28T22:25:08.659Z,4.97
2018-01-28T22:27:35.621Z,4.20
2018-01-28T22:30:01.777Z,5.00
2018-01-28T22:32:27.936Z,4.73
2018-01-28T22:34:54.131Z,4.60
2018-01-28T22:37:20.340Z,5.57
2018-01-28T22:39:46.580Z,5.47
2018-01-28T22:42:12.745Z,5.10
2018-01-28T22:44:38.946Z,4.97
2018-01-28T22:47:05.127Z,5.27
2018-01-28T22:49:31.360Z,4.47
2018-01-28T22:51:57.502Z,5.93
2018-01-28T22:54:23.713Z,10.70
2018-01-28T22:56:49.875Z,4.53
2018-01-28T22:59:16.098Z,4.80
2018-01-28T23:01:42.304Z,4.00
2018-01-28T23:04:08.506Z,4.37
2018-01-28T23:06:35.462Z,4.33
2018-01-28T23:09:02.456Z,4.10
2018-01-28T23:11:28.701Z,4.00
2018-01-28T23:13:54.825Z,3.70
2018-01-28T23:16:21.001Z,3.40
2018-01-28T23:18:47.270Z,3.50
2018-01-28T23:21:13.499Z,2.97
2018-01-28T23:23:39.794Z,3.10
2018-01-28T23:26:05.985Z,2.53
2018-01-28T23:28:32.915Z,2.90
2018-01-28T23:30:59.158Z,3.30
2018-01-28T23:33:25.304Z,2.47
2018-01-28T23:35:52.253Z,2.70
2018-01-28T23:38:18.422Z,2.97
2018-01-28T23:40:44.608Z,2.87
2018-01-28T23:43:10.788Z,2.43
2018-01-28T23:45:36.909Z,2.70
2018-01-28T23:48:03.113Z,2.70
2018-01-28T23:50:29.301Z,2.47
2018-01-28T23:52:56.257Z,2.57
2018-01-28T23:55:22.422Z,2.43
2018-01-28T23:57:48.626Z,2.37
